Airfield :







YOU CAN JOIN US ON...

 
LOGIN :

Register | Disclaimer

   EN    FR    IT 

 









Legend :    VFR   Marginal VFR   IFR   Intensive IFR   Very Intensive IFR
Visi :
Ceiling :
>= 8 km
>= 3000ft
5 to 8 km
1000 to 3000 ft
1500m to 5 km
500 to 1000 ft
800 to 1500m
200 to 500 ft
< 800m
< 200 ft
Symbols :   Thunderstorms  Fog  Heavy snow  Heavy precipitations  Wind > 20 kt






- Airport Elevation : 228 ft


KFSO - Franklin County State

CURRENT METAR :
  • 260215Z AUTO 00000KT 3SM -SN OVC014 02/02 A2983 RMK AO2 T00230017

EXPIRED METARs :
  • 260155Z AUTO 00000KT 4SM UP BKN016 BKN022 OVC039 03/02 A2985 RMK AO2 T00260020
  • 260135Z AUTO 36003KT 10SM UP SCT027 BKN039 OVC060 03/02 A2986 RMK AO2 T00280022
  • 260115Z AUTO 03003KT 4SM UP SCT018 OVC025 03/02 A2988 RMK AO2 T00330023
  • 260056Z AUTO 09003KT 10SM UP OVC025 04/02 A2989 RMK AO2 T00370022
  • 260035Z AUTO 11005KT 7SM UP OVC027 03/02 A2992 RMK AO2 T00320022
  • 260016Z AUTO 11004KT 10SM UP OVC031 04/02 A2992 RMK AO2 T00370021
  • 252355Z AUTO 00000KT 10SM BKN036 OVC070 03/02 A2992 RMK AO2 T00310023 10058 20029
  • 252336Z AUTO 00000KT 10SM UP SCT043 OVC060 04/02 A2992 RMK AO2 T00400020

TAF N/A



MET'MAP, your aeronautical weather chart ! - Copyright ORBIFLY December 2007 - Disclaimer

ORBIFLY MET'MAP TEAM :

Programming & Development : Alexandra Zaïnal
Concept & original design : Baudouin d'Aumeries
Assistance for programming : Marc-Olivier Méhu
Technical & hardware support : Manuel Goepfert

Contact : metmap@orbifly.com




SOURCES & CREDITS :

   NOAA